Time;durP1;ratioP1;P1;durP2;ratioP2;P2;SDS_P1;SDS_P2;PMS_P1;PMS_P2;Temp;Humidity;BMP_temperature;BMP_pressure;BME280_temperature;BME280_humidity;BME280_pressure;Samples;Min_cycle;Max_cycle;Signal;HPM_P1;HPM_P2
2022/05/09 00:00:33;;;;;;;4.93;1.95;;;;;;;8.39;83.05;101881.03;5221459;28;20111;-76
2022/05/09 00:03:03;;;;;;;4.75;1.67;;;;;;;8.47;82.40;101889.69;5222332;28;20025;-77
2022/05/09 00:05:34;;;;;;;3.92;1.85;;;;;;;8.41;81.97;101884.47;5222225;28;20029;-76
2022/05/09 00:08:04;;;;;;;5.82;1.95;;;;;;;7.97;85.58;101891.63;5222106;28;20029;-76
2022/05/09 00:10:35;;;;;;;4.72;1.70;;;;;;;7.86;86.51;101887.34;5221623;28;20029;-76
2022/05/09 00:13:05;;;;;;;4.35;1.85;;;;;;;7.90;87.69;101895.13;5222141;28;20494;-76
2022/05/09 00:15:35;;;;;;;7.15;1.90;;;;;;;8.33;84.48;101886.28;5222384;28;20384;-76
2022/05/09 00:18:06;;;;;;;6.35;1.70;;;;;;;8.25;84.08;101888.03;5221435;28;20056;-76
2022/05/09 00:20:36;;;;;;;5.18;1.95;;;;;;;8.08;85.43;101889.84;5221918;28;20040;-76
2022/05/09 00:23:07;;;;;;;4.47;1.70;;;;;;;8.15;86.75;101898.47;5221819;28;20071;-77
2022/05/09 00:25:37;;;;;;;5.60;2.03;;;;;;;8.03;85.22;101891.59;5221055;28;20438;-76
2022/05/09 00:28:07;;;;;;;6.35;1.90;;;;;;;7.63;88.22;101895.22;5221505;28;20040;-77
2022/05/09 00:30:37;;;;;;;4.05;1.55;;;;;;;8.08;86.16;101907.22;5208273;28;20280;-77
2022/05/09 00:33:08;;;;;;;8.73;1.77;;;;;;;7.68;86.26;101903.03;5218296;28;20056;-77
2022/05/09 00:35:40;;;;;;;5.43;1.73;;;;;;;7.84;86.12;101899.50;5222311;28;20025;-76
2022/05/09 00:38:10;;;;;;;6.32;2.10;;;;;;;7.64;85.68;101906.47;5221442;28;20046;-76
2022/05/09 00:41:28;;;;;;;2.58;1.45;;;;;;;7.18;90.30;101903.97;5221516;28;20035;-76
2022/05/09 00:43:37;;;;;;;3.30;1.50;;;;;;;7.12;88.85;101898.78;5217421;28;20491;-76
2022/05/09 00:46:08;;;;;;;5.47;1.67;;;;;;;7.31;88.38;101902.22;5221356;28;20024;-77
2022/05/09 00:48:38;;;;;;;3.63;1.83;;;;;;;7.05;91.42;101907.41;5221408;28;20029;-77
2022/05/09 00:51:10;;;;;;;5.55;1.70;;;;;;;7.28;89.40;101901.34;5221009;28;20386;-77
2022/05/09 00:53:41;;;;;;;5.25;2.08;;;;;;;7.15;91.21;101909.16;5221132;28;20024;-77
2022/05/09 00:56:19;;;;;;;6.65;2.00;;;;;;;7.07;91.19;101901.38;5220938;28;20104;-76
2022/05/09 00:58:56;;;;;;;5.43;2.00;;;;;;;6.99;92.21;101903.13;5221402;28;20398;-76
2022/05/09 01:01:27;;;;;;;6.50;1.98;;;;;;;6.92;94.73;101918.69;5220482;28;20052;-76
2022/05/09 01:04:04;;;;;;;7.45;2.33;;;;;;;6.83;94.96;101908.28;5221651;28;20056;-77
2022/05/09 01:06:34;;;;;;;7.55;2.17;;;;;;;7.25;92.58;101910.91;5217014;28;20086;-77
2022/05/09 01:09:06;;;;;;;5.10;1.95;;;;;;;7.37;89.36;101917.81;5221389;28;20345;-76
2022/05/09 01:11:38;;;;;;;5.25;1.65;;;;;;;7.65;88.16;101913.41;5221028;28;20029;-76
2022/05/09 01:14:17;;;;;;;7.05;2.10;;;;;;;7.49;87.04;101915.19;5221583;28;20029;-77
2022/05/09 01:16:47;;;;;;;7.30;2.00;;;;;;;7.59;87.69;101906.50;5221046;28;20434;-76
2022/05/09 01:19:30;;;;;;;6.47;2.05;;;;;;;7.29;88.85;101911.75;5221504;28;20036;-77
2022/05/09 01:22:02;;;;;;;4.22;1.83;;;;;;;7.55;86.10;101912.56;5220950;28;20031;-76
2022/05/09 01:24:32;;;;;;;7.53;2.17;;;;;;;7.20;87.82;101917.81;5221173;28;20096;-76
2022/05/09 01:27:02;;;;;;;3.78;1.88;;;;;;;7.06;87.99;101916.94;5219781;28;20436;-76
2022/05/09 01:29:39;;;;;;;6.97;2.47;;;;;;;6.79;90.67;101914.34;5218751;28;20024;-77
2022/05/09 01:32:12;;;;;;;6.90;2.35;;;;;;;7.04;90.93;101921.28;5227987;28;20029;-77
2022/05/09 01:34:52;;;;;;;5.07;2.10;;;;;;;6.98;91.01;101921.28;5228129;28;20099;-76
2022/05/09 01:37:23;;;;;;;5.38;2.20;;;;;;;7.16;89.92;101911.78;5227527;28;20037;-76
2022/05/09 01:39:53;;;;;;;7.32;2.15;;;;;;;7.14;89.63;101917.81;5227971;28;20502;-77
2022/05/09 01:42:24;;;;;;;4.67;2.03;;;;;;;7.03;91.06;101916.94;5227584;28;20043;-77
2022/05/09 01:44:54;;;;;;;4.25;1.85;;;;;;;6.99;90.89;101917.81;5227963;28;20267;-77
2022/05/09 01:50:14;;;;;;;7.25;2.15;;;;;;;6.91;90.48;101919.56;5225286;28;20036;-77
2022/05/09 01:52:44;;;;;;;6.88;2.00;;;;;;;6.62;90.73;101922.09;5227414;28;20041;-77
2022/05/09 01:55:15;;;;;;;5.57;2.00;;;;;;;6.96;89.82;101929.06;5227747;28;20170;-77
2022/05/09 01:57:45;;;;;;;7.03;2.00;;;;;;;6.73;91.24;101922.16;5227428;28;20060;-76
2022/05/09 02:00:16;;;;;;;5.28;1.70;;;;;;;6.93;91.09;101929.06;5227282;28;20040;-77
2022/05/09 02:02:47;;;;;;;3.97;1.67;;;;;;;6.93;90.58;101928.22;5227692;28;20108;-76
2022/05/09 02:05:17;;;;;;;6.47;1.75;;;;;;;6.90;90.57;101921.28;5228023;28;20120;-76
2022/05/09 02:07:47;;;;;;;8.57;2.13;;;;;;;6.76;90.38;101919.53;5227489;28;20106;-76
2022/05/09 02:10:18;;;;;;;3.17;1.70;;;;;;;6.69;91.69;101922.97;5227493;28;20120;-76
2022/05/09 02:12:49;;;;;;;5.40;1.77;;;;;;;6.70;91.20;101909.13;5226929;28;20477;-76
2022/05/09 02:15:19;;;;;;;4.85;1.50;;;;;;;6.72;90.94;101913.47;5227301;28;20025;-76
2022/05/09 02:17:50;;;;;;;8.27;1.90;;;;;;;6.39;93.73;101917.75;5227201;28;20394;-77
2022/05/09 02:20:20;;;;;;;6.30;1.80;;;;;;;6.63;93.70;101917.78;5227338;28;20063;-76
2022/05/09 02:22:50;;;;;;;5.22;1.85;;;;;;;6.70;90.60;101915.19;5227107;28;20024;-77
2022/05/09 02:25:29;;;;;;;6.47;1.90;;;;;;;6.82;89.77;101919.53;5227870;28;20031;-77
2022/05/09 02:28:01;;;;;;;4.68;1.92;;;;;;;6.97;88.30;101909.16;5227378;28;20032;-76
2022/05/09 02:30:31;;;;;;;3.85;1.77;;;;;;;6.80;88.91;101910.88;5227314;28;20033;-77
2022/05/09 02:33:03;;;;;;;4.50;1.90;;;;;;;6.36;91.94;101918.59;5226820;28;20425;-76
2022/05/09 02:35:34;;;;;;;3.80;1.75;;;;;;;6.21;93.89;101909.88;5223714;28;20029;-77
2022/05/09 02:38:05;;;;;;;6.03;1.92;;;;;;;6.48;95.10;101922.94;5226846;28;20031;-77
2022/05/09 02:40:36;;;;;;;7.00;1.50;;;;;;;6.37;92.08;101914.25;5223606;28;20104;-77
2022/05/09 02:43:06;;;;;;;5.85;1.80;;;;;;;6.54;92.36;101915.16;5223906;28;20020;-76
2022/05/09 02:45:38;;;;;;;4.95;2.00;;;;;;;6.72;90.82;101910.00;5224038;28;20433;-76
2022/05/09 02:48:10;;;;;;;3.60;1.67;;;;;;;6.72;89.32;101917.78;5223734;28;20075;-77
2022/05/09 02:50:40;;;;;;;7.28;2.10;;;;;;;6.22;93.82;101924.63;5224113;28;20387;-77
2022/05/09 02:53:11;;;;;;;4.45;1.75;;;;;;;6.55;92.80;101919.47;5223783;28;20049;-76
2022/05/09 02:55:41;;;;;;;6.25;2.00;;;;;;;6.44;89.76;101916.88;5224033;28;20098;-76
2022/05/09 02:58:12;;;;;;;7.60;2.10;;;;;;;6.30;92.62;101912.50;5224203;28;20375;-77
2022/05/09 03:00:42;;;;;;;6.35;1.88;;;;;;;6.34;91.83;101912.53;5223300;28;20041;-77
2022/05/09 03:06:02;;;;;;;9.30;2.30;;;;;;;6.14;94.40;101913.31;5223626;28;20025;-77
2022/05/09 03:08:32;;;;;;;4.18;1.83;;;;;;;6.31;93.49;101914.25;5223122;28;20029;-77
2022/05/09 03:11:03;;;;;;;7.93;2.28;;;;;;;6.36;93.36;101917.72;5223337;28;20025;-76
2022/05/09 03:13:34;;;;;;;4.63;1.83;;;;;;;6.40;92.64;101915.13;5223567;28;20020;-77
2022/05/09 03:16:06;;;;;;;8.50;2.03;;;;;;;5.94;97.04;101915.81;5223532;28;20486;-77
2022/05/09 03:18:36;;;;;;;6.57;1.85;;;;;;;6.15;96.69;101910.75;5222920;28;20035;-77
2022/05/09 03:21:06;;;;;;;5.53;1.85;;;;;;;6.38;92.15;101915.97;5222958;28;20029;-77
2022/05/09 03:23:37;;;;;;;4.57;1.75;;;;;;;6.39;89.31;101907.38;5223350;28;20025;-77
2022/05/09 03:26:07;;;;;;;7.50;1.90;;;;;;;6.22;91.62;101909.03;5222941;28;20051;-77
2022/05/09 03:28:37;;;;;;;7.38;1.70;;;;;;;6.27;92.57;101913.34;5223319;28;20363;-77
2022/05/09 03:31:08;;;;;;;3.95;1.60;;;;;;;6.38;90.63;101910.78;5222878;28;20111;-77
2022/05/09 03:33:39;;;;;;;2.97;1.48;;;;;;;6.44;89.36;101911.69;5223073;28;20036;-77
2022/05/09 03:36:09;;;;;;;4.07;1.60;;;;;;;6.38;89.55;101908.19;5223050;28;20049;-77
2022/05/09 03:38:39;;;;;;;3.35;1.40;;;;;;;6.44;89.92;101916.00;5223153;28;20057;-77
2022/05/09 03:41:10;;;;;;;5.82;1.63;;;;;;;6.49;89.83;101909.09;5222645;28;20032;-77
2022/05/09 03:43:40;;;;;;;2.92;1.65;;;;;;;6.34;90.54;101914.25;5223031;28;20421;-76
2022/05/09 03:46:10;;;;;;;6.00;2.10;;;;;;;6.33;91.21;101904.72;5222730;28;20027;-77
2022/05/09 03:48:41;;;;;;;5.05;1.70;;;;;;;6.28;90.11;101914.25;5222476;28;20025;-77
2022/05/09 03:51:11;;;;;;;3.88;1.65;;;;;;;6.27;92.50;101904.72;5221262;28;20024;-77
2022/05/09 03:53:41;;;;;;;4.93;1.98;;;;;;;6.07;95.58;101908.97;5222959;28;20103;-77
2022/05/09 03:56:12;;;;;;;5.88;2.00;;;;;;;6.11;95.25;101901.19;5221031;28;20471;-77
2022/05/09 03:58:42;;;;;;;6.68;1.90;;;;;;;6.02;96.63;101915.84;5238788;22;20083;-78
2022/05/09 04:01:13;;;;;;;5.22;2.25;;;;;;;6.16;95.75;101909.88;5244522;28;20404;-77
2022/05/09 04:03:43;;;;;;;5.93;2.20;;;;;;;5.88;95.94;101897.63;5232931;28;20043;-78
2022/05/09 04:06:14;;;;;;;5.15;1.88;;;;;;;5.99;98.20;101900.28;5235874;28;20020;-78
2022/05/09 04:08:44;;;;;;;7.88;1.98;;;;;;;6.23;96.42;101906.44;5245923;28;20446;-78
2022/05/09 04:11:14;;;;;;;7.30;1.70;;;;;;;6.59;92.72;101903.06;5244430;28;20097;-78
2022/05/09 04:13:46;;;;;;;5.50;1.77;;;;;;;6.62;93.07;101910.84;5244000;28;20020;-78
2022/05/09 04:19:05;;;;;;;3.70;1.60;;;;;;;6.77;93.13;101905.69;5238846;28;20097;-78
2022/05/09 04:21:35;;;;;;;4.75;1.77;;;;;;;6.75;90.49;101908.28;5242093;28;20044;-78
2022/05/09 04:24:06;;;;;;;7.38;1.80;;;;;;;6.64;93.27;101903.94;5242530;28;20474;-78
2022/05/09 04:26:37;;;;;;;3.33;1.60;;;;;;;6.99;93.52;101907.44;5225932;28;20027;-77
2022/05/09 04:29:07;;;;;;;10.85;2.30;;;;;;;7.33;91.66;101910.88;5243354;28;20032;-77
2022/05/09 04:31:37;;;;;;;6.30;2.28;;;;;;;7.69;91.54;101905.59;5243527;28;20056;-78
2022/05/09 04:34:08;;;;;;;5.97;2.00;;;;;;;8.00;89.62;101899.44;5242905;28;20029;-77
2022/05/09 04:36:39;;;;;;;9.88;2.40;;;;;;;8.90;87.50;101893.69;5243171;28;20088;-77
2022/05/09 04:39:09;;;;;;;6.25;1.92;;;;;;;10.23;83.14;101884.50;5233942;28;20070;-78
2022/05/09 04:41:40;;;;;;;9.77;2.13;;;;;;;11.94;73.93;101886.84;5243136;28;20017;-78
2022/05/09 04:44:10;;;;;;;5.17;1.80;;;;;;;13.27;71.28;101881.97;5243730;28;20036;-78
2022/05/09 04:46:40;;;;;;;5.47;1.85;;;;;;;14.16;64.90;101874.28;5231343;28;20297;-78
2022/05/09 04:49:10;;;;;;;6.50;2.17;;;;;;;16.02;62.96;101864.41;5244055;28;20025;-78
2022/05/09 04:51:41;;;;;;;7.50;2.20;;;;;;;16.95;60.15;101874.81;5229865;28;20278;-78
2022/05/09 04:54:11;;;;;;;8.67;1.87;;;;;;;17.58;57.94;101864.19;5244111;28;20044;-78
2022/05/09 04:56:42;;;;;;;7.90;2.43;;;;;;;17.37;58.57;101866.91;5243974;28;20274;-78
2022/05/09 04:59:12;;;;;;;6.15;1.80;;;;;;;18.97;56.62;101860.19;5243675;28;20283;-78
2022/05/09 05:01:42;;;;;;;5.82;1.70;;;;;;;18.93;56.24;101876.34;5233756;28;20016;-79
2022/05/09 05:04:14;;;;;;;5.50;2.10;;;;;;;18.32;55.55;101872.25;5233666;28;20031;-78
2022/05/09 05:06:44;;;;;;;9.68;2.38;;;;;;;19.63;54.54;101864.75;5244166;28;20833;-78
2022/05/09 05:09:15;;;;;;;5.15;1.70;;;;;;;18.57;55.08;101866.66;5244731;28;20112;-78
2022/05/09 05:11:45;;;;;;;5.67;1.87;;;;;;;19.97;54.25;101872.66;5244407;28;20062;-79
2022/05/09 05:14:16;;;;;;;5.20;1.83;;;;;;;21.48;51.67;101865.75;5245113;28;20274;-79
2022/05/09 05:16:59;;;;;;;6.55;2.20;;;;;;;20.46;52.95;101868.22;5234649;28;20669;-78
2022/05/09 05:19:35;;;;;;;8.27;2.03;;;;;;;20.09;53.25;101873.84;5244185;28;20020;-79
2022/05/09 05:22:05;;;;;;;7.28;2.10;;;;;;;22.80;49.71;101859.06;5241620;28;20103;-79
2022/05/09 05:24:37;;;;;;;6.95;2.22;;;;;;;20.53;51.58;101874.91;5243125;28;20104;-79
2022/05/09 05:27:07;;;;;;;6.45;2.00;;;;;;;20.32;51.97;101863.66;5242769;28;20081;-78
2022/05/09 05:29:38;;;;;;;7.50;2.30;;;;;;;19.19;55.37;101874.16;5241537;28;20036;-78
2022/05/09 05:32:20;;;;;;;6.82;2.10;;;;;;;21.77;49.62;101864.88;5242084;28;20028;-79
2022/05/09 05:34:50;;;;;;;6.63;2.30;;;;;;;23.34;48.69;101855.41;5231072;28;20032;-78
2022/05/09 05:37:21;;;;;;;5.50;2.05;;;;;;;24.38;47.75;101854.19;5243329;28;20043;-78
2022/05/09 05:39:52;;;;;;;6.15;2.03;;;;;;;24.13;47.99;101856.94;5233050;28;20096;-78
2022/05/09 05:42:22;;;;;;;6.75;2.00;;;;;;;21.74;51.20;101867.72;5243243;28;20067;-78
2022/05/09 05:44:53;;;;;;;9.05;2.20;;;;;;;20.20;55.38;101874.97;5243072;28;20025;-79
2022/05/09 05:47:24;;;;;;;8.43;1.90;;;;;;;20.88;53.32;101872.00;5242865;28;20927;-79
2022/05/09 05:49:55;;;;;;;6.45;2.10;;;;;;;20.95;52.98;101868.03;5241277;28;20397;-79
2022/05/09 05:52:25;;;;;;;8.20;2.05;;;;;;;21.41;52.06;101865.25;5242841;28;20024;-79
2022/05/09 05:54:55;;;;;;;6.90;2.17;;;;;;;23.66;49.63;101863.84;5243763;28;20028;-79
2022/05/09 05:57:29;;;;;;;5.47;2.10;;;;;;;23.64;49.72;101849.75;5243541;28;20409;-79
2022/05/09 06:00:05;;;;;;;6.25;2.05;;;;;;;21.54;51.50;101866.22;5242712;28;20033;-79
2022/05/09 06:02:38;;;;;;;5.68;2.22;;;;;;;20.43;54.83;101863.09;5238642;28;20024;-79
2022/05/09 06:05:10;;;;;;;8.20;2.38;;;;;;;22.91;51.62;101861.00;5242808;28;20020;-78
2022/05/09 06:07:41;;;;;;;6.18;2.40;;;;;;;23.07;50.75;101854.56;5232651;28;20020;-78
2022/05/09 06:10:12;;;;;;;6.57;2.25;;;;;;;23.25;50.20;101849.84;5232344;28;20035;-78
2022/05/09 06:12:43;;;;;;;6.30;2.45;;;;;;;22.24;50.38;101857.47;5242293;28;20505;-78
2022/05/09 06:15:33;;;;;;;10.60;2.78;;;;;;;21.68;51.92;101863.63;5244234;28;20099;-78
2022/05/09 06:18:07;;;;;;;8.15;2.50;;;;;;;20.60;52.63;101869.16;5242205;28;20029;-78
2022/05/09 06:20:39;;;;;;;8.02;2.65;;;;;;;21.52;53.36;101862.81;5246486;28;20077;-78
2022/05/09 06:23:13;;;;;;;9.73;2.33;;;;;;;21.72;53.22;101869.63;5242931;28;20059;-78
2022/05/09 06:25:46;;;;;;;8.90;2.40;;;;;;;20.60;55.86;101869.16;5245836;28;20576;-78
2022/05/09 06:28:18;;;;;;;7.35;2.20;;;;;;;21.40;55.08;101868.03;5246775;28;20094;-78
2022/05/09 06:30:48;;;;;;;8.85;2.30;;;;;;;22.22;53.56;101857.53;5246212;28;20059;-78
2022/05/09 06:33:23;;;;;;;6.47;2.40;;;;;;;20.61;56.28;101876.19;5246814;28;20509;-78
2022/05/09 06:35:54;;;;;;;;;;;;;;;21.05;54.50;101869.25;5247591;28;20489;-79
2022/05/09 06:38:27;;;;;;;6.15;2.08;;;;;;;21.64;54.53;101867.44;5246975;28;19913;-78
2022/05/09 06:41:00;;;;;;;7.50;2.28;;;;;;;23.11;51.79;101863.22;5236957;28;20032;-78
2022/05/09 06:43:30;;;;;;;9.27;2.20;;;;;;;23.48;51.29;101860.66;5246776;28;20024;-78
2022/05/09 06:46:01;;;;;;;9.45;2.40;;;;;;;24.70;48.82;101852.75;5246476;28;20023;-78
2022/05/09 06:48:31;;;;;;;10.80;2.57;;;;;;;23.84;49.99;101858.13;5236719;28;20524;-79
2022/05/09 06:51:01;;;;;;;7.37;2.33;;;;;;;23.19;50.60;101858.25;5246531;28;20270;-79
2022/05/09 06:53:31;;;;;;;6.65;2.40;;;;;;;22.15;54.49;101858.03;5246396;28;20021;-78
2022/05/09 06:56:02;;;;;;;7.57;2.30;;;;;;;24.83;49.06;101851.72;5228503;28;20131;-79
2022/05/09 06:58:32;;;;;;;10.23;2.40;;;;;;;22.98;52.01;101857.00;5232206;28;20017;-79
2022/05/09 07:01:15;;;;;;;8.55;2.60;;;;;;;22.26;52.78;101861.72;5235652;28;20154;-79
2022/05/09 07:03:46;;;;;;;7.90;2.10;;;;;;;22.20;54.79;101855.91;5237217;28;20089;-79
2022/05/09 07:06:16;;;;;;;7.88;2.35;;;;;;;22.55;52.71;101859.88;5246383;28;20028;-78
2022/05/09 07:08:47;;;;;;;7.60;2.42;;;;;;;23.95;50.68;101852.91;5230677;28;20375;-78
2022/05/09 07:11:17;;;;;;;7.30;2.50;;;;;;;23.97;51.14;101850.13;5246371;28;20024;-79
2022/05/09 07:13:48;;;;;;;7.10;2.40;;;;;;;22.66;50.93;101860.94;5248214;28;20154;-78
2022/05/09 07:16:18;;;;;;;8.07;2.40;;;;;;;23.69;49.91;101850.31;5246863;28;20016;-78
2022/05/09 07:18:49;;;;;;;5.83;2.33;;;;;;;23.81;49.10;101855.66;5246503;28;20036;-78
2022/05/09 07:21:20;;;;;;;9.90;2.90;;;;;;;23.61;52.24;101849.97;5246434;28;20039;-79
2022/05/09 07:23:50;;;;;;;8.57;2.65;;;;;;;24.99;47.77;101848.75;5244936;28;20032;-78
2022/05/09 07:26:22;;;;;;;6.63;2.10;;;;;;;26.87;46.70;101843.44;5244974;28;20090;-78
2022/05/09 07:28:52;;;;;;;7.78;2.30;;;;;;;26.46;45.51;101847.78;5236500;28;20036;-78
2022/05/09 07:31:22;;;;;;;7.20;2.33;;;;;;;25.94;46.50;101850.25;5246318;28;20478;-77
2022/05/09 07:33:52;;;;;;;7.80;2.33;;;;;;;26.47;46.69;101850.34;5245308;28;20266;-78
2022/05/09 07:36:23;;;;;;;7.07;2.30;;;;;;;27.20;45.66;101846.03;5246657;28;20543;-78
2022/05/09 07:38:53;;;;;;;7.43;2.40;;;;;;;25.78;47.05;101844.38;5246073;28;20108;-78
2022/05/09 07:41:23;;;;;;;8.97;2.53;;;;;;;25.19;48.26;101858.84;5245745;28;20281;-78
2022/05/09 07:43:54;;;;;;;9.60;2.80;;;;;;;27.24;45.70;101845.63;5246319;28;20389;-78
2022/05/09 07:46:24;;;;;;;9.52;2.42;;;;;;;27.02;45.23;101851.09;5246236;28;20021;-78
2022/05/09 07:48:55;;;;;;;9.13;2.40;;;;;;;27.01;44.34;101848.50;5246389;28;20028;-78
2022/05/09 07:51:25;;;;;;;7.55;2.47;;;;;;;27.08;45.40;101857.78;5245789;28;20534;-77
2022/05/09 07:53:55;;;;;;;9.87;2.30;;;;;;;26.37;44.29;101859.28;5245533;28;20029;-78
2022/05/09 07:56:26;;;;;;;6.80;2.30;;;;;;;24.84;46.16;101864.13;5244599;28;20028;-77
2022/05/09 07:58:56;;;;;;;7.38;2.40;;;;;;;25.22;46.73;101866.66;5245367;28;20091;-77
2022/05/09 08:01:26;;;;;;;6.88;2.30;;;;;;;25.93;45.54;101856.59;5245241;28;20032;-78
2022/05/09 08:03:58;;;;;;;8.00;2.50;;;;;;;25.23;45.99;101855.84;5245411;28;20032;-78
2022/05/09 08:06:28;;;;;;;7.00;2.03;;;;;;;26.89;45.23;101847.72;5245166;28;20021;-77
2022/05/09 08:09:01;;;;;;;5.90;2.30;;;;;;;26.71;44.77;101850.22;5244609;28;20048;-77
2022/05/09 08:11:31;;;;;;;7.78;2.42;;;;;;;27.51;45.26;101845.97;5244682;28;20568;-78
2022/05/09 08:14:02;;;;;;;7.97;2.33;;;;;;;27.30;44.06;101850.47;5244807;28;20052;-78
2022/05/09 08:16:33;;;;;;;7.70;2.50;;;;;;;28.07;43.74;101851.81;5235326;28;20277;-78
2022/05/09 08:19:04;;;;;;;6.10;2.40;;;;;;;26.62;45.64;101854.50;5240812;28;20038;-78
2022/05/09 08:21:36;;;;;;;6.65;2.10;;;;;;;28.06;43.10;101844.72;5235254;28;20279;-79
2022/05/09 08:24:08;;;;;;;9.15;2.30;;;;;;;27.84;45.36;101839.53;5245087;28;20039;-77
2022/05/09 08:26:38;;;;;;;5.32;2.00;;;;;;;28.23;42.98;101854.84;5245274;28;20482;-78
2022/05/09 08:29:09;;;;;;;6.70;1.98;;;;;;;27.64;43.14;101856.53;5236297;28;20020;-78
2022/05/09 08:31:39;;;;;;;8.93;2.40;;;;;;;27.34;41.83;101848.41;5246514;28;20054;-78
2022/05/09 08:34:10;;;;;;;6.82;2.30;;;;;;;26.58;45.94;101853.06;5245201;28;20296;-79
2022/05/09 08:36:46;;;;;;;7.33;1.93;;;;;;;27.53;43.73;101846.69;5245609;28;20177;-78
2022/05/09 08:39:16;;;;;;;4.63;1.70;;;;;;;26.26;40.81;101861.97;5245798;28;20286;-79
2022/05/09 08:42:03;;;;;;;5.90;1.70;;;;;;;27.31;42.20;101841.44;5245694;28;20032;-79
2022/05/09 08:45:01;;;;;;;5.70;2.13;;;;;;;27.95;44.29;101848.38;5240584;28;20031;-77
2022/05/09 08:47:56;;;;;;;7.78;2.03;;;;;;;27.01;43.43;101845.84;5244162;28;20032;-77
2022/05/09 08:50:58;;;;;;;5.47;1.77;;;;;;;28.43;42.19;101837.81;5243015;28;20025;-78
2022/05/09 08:53:31;;;;;;;6.88;2.00;;;;;;;27.81;40.74;101840.66;5243088;28;20039;-76
2022/05/09 08:56:02;;;;;;;4.72;1.73;;;;;;;27.89;42.01;101850.75;5243524;28;20017;-77
2022/05/09 08:58:51;;;;;;;4.10;1.90;;;;;;;27.62;42.04;101840.50;5230378;28;20054;-78
2022/05/09 09:01:32;;;;;;;5.55;1.80;;;;;;;25.96;42.03;101848.31;5243669;28;20107;-78
2022/05/09 09:04:13;;;;;;;7.97;2.00;;;;;;;25.21;43.37;101846.19;5245190;28;20024;-77
2022/05/09 09:07:06;;;;;;;6.18;2.03;;;;;;;25.43;45.99;101843.56;5242474;28;20398;-78
2022/05/09 09:09:42;;;;;;;6.00;2.05;;;;;;;25.23;47.14;101844.25;5240506;28;20032;-77
2022/05/09 09:12:51;;;;;;;4.90;1.90;;;;;;;25.00;44.98;101840.59;5240796;28;20036;-78
2022/05/09 09:15:25;;;;;;;6.05;1.85;;;;;;;23.91;45.62;101835.38;5213814;28;20529;-77
2022/05/09 09:18:19;;;;;;;4.15;1.60;;;;;;;24.20;45.66;101844.84;5244011;28;20203;-77
2022/05/09 09:20:55;;;;;;;4.55;1.48;;;;;;;24.03;45.17;101839.00;5241909;28;20033;-78
2022/05/09 09:23:47;;;;;;;6.68;1.83;;;;;;;23.85;46.07;101834.97;5242929;28;20032;-77
2022/05/09 09:26:32;;;;;;;6.75;1.70;;;;;;;24.07;48.64;101827.13;5242011;28;20038;-79
2022/05/09 09:29:11;;;;;;;5.10;1.77;;;;;;;23.63;45.65;101824.91;5245375;28;20033;-78
2022/05/09 09:31:49;;;;;;;6.15;1.70;;;;;;;23.22;44.88;101832.19;5242556;28;20060;-79
2022/05/09 09:34:31;;;;;;;7.50;2.00;;;;;;;23.35;44.28;101817.06;5246050;28;20028;-79
2022/05/09 09:37:36;;;;;;;6.28;1.70;;;;;;;23.00;45.06;101823.91;5245772;28;20076;-78
2022/05/09 09:40:10;;;;;;;10.55;1.98;;;;;;;23.51;47.67;101815.06;5227664;28;20069;-79
2022/05/09 09:42:40;;;;;;;8.00;2.15;;;;;;;23.62;45.07;101823.19;5245755;28;20025;-78
2022/05/09 09:45:32;;;;;;;5.55;1.70;;;;;;;22.81;46.66;101833.25;5245777;28;20070;-79
2022/05/09 09:48:19;;;;;;;6.63;1.90;;;;;;;23.54;46.02;101824.69;5235432;28;20028;-78
2022/05/09 09:51:03;;;;;;;6.20;1.83;;;;;;;22.82;46.28;101817.16;5247097;28;20028;-78
2022/05/09 09:53:38;;;;;;;5.70;1.80;;;;;;;23.24;46.67;101814.31;5235474;28;20619;-77
2022/05/09 09:56:21;;;;;;;5.13;1.67;;;;;;;22.90;46.00;101828.16;5245220;28;20028;-79
2022/05/09 10:01:34;;;;;;;5.28;1.35;;;;;;;22.66;47.07;101812.06;5227656;28;20081;-79
2022/05/09 10:04:04;;;;;;;5.90;1.70;;;;;;;22.15;48.02;101815.41;5228886;28;20071;-79
2022/05/09 10:06:56;;;;;;;6.53;1.85;;;;;;;22.31;46.73;101806.34;5228765;28;20033;-79
2022/05/09 10:09:41;;;;;;;6.85;1.92;;;;;;;22.04;46.39;101799.22;5210630;28;20036;-78
2022/05/09 10:12:19;;;;;;;8.80;1.63;;;;;;;22.31;46.82;101800.16;5225697;28;20048;-79
2022/05/09 10:14:51;;;;;;;6.88;2.00;;;;;;;21.61;46.16;101798.38;5209626;28;20048;-78
2022/05/09 10:17:32;;;;;;;5.57;1.63;;;;;;;22.05;47.80;101788.50;5210208;28;20029;-79
2022/05/09 10:20:23;;;;;;;10.57;2.03;;;;;;;21.31;46.92;101799.38;5228757;28;20029;-79
2022/05/09 10:26:21;;;;;;;7.57;1.80;;;;;;;21.39;47.15;101778.50;5227018;28;20156;-78
2022/05/09 10:28:56;;;;;;;7.20;1.80;;;;;;;21.45;48.66;101775.47;5208837;28;20037;-79
2022/05/09 10:31:47;;;;;;;5.33;1.80;;;;;;;21.85;48.42;101777.38;5210770;28;20052;-79
2022/05/09 10:34:22;;;;;;;5.88;1.75;;;;;;;21.69;47.44;101768.66;5226914;28;20088;-79
2022/05/09 10:36:59;;;;;;;;;;;;;;;21.82;47.00;101765.16;5229903;28;20025;-79
2022/05/09 10:40:00;;;;;;;6.70;1.85;;;;;;;21.67;48.71;101767.91;5229196;28;19912;-78
2022/05/09 10:42:42;;;;;;;5.20;1.63;;;;;;;21.76;49.14;101752.19;5228789;28;20032;-78
2022/05/09 10:45:17;;;;;;;5.40;1.83;;;;;;;21.28;50.62;101762.34;5227111;28;20474;-78
2022/05/09 10:47:55;;;;;;;4.60;1.70;;;;;;;20.81;50.39;101766.94;5230785;28;20031;-79
2022/05/09 10:50:49;;;;;;;7.85;1.80;;;;;;;21.55;50.23;101753.50;5229884;28;20093;-79
2022/05/09 10:53:25;;;;;;;5.85;1.80;;;;;;;21.61;46.16;101753.13;5229738;28;20037;-80
2022/05/09 10:56:14;;;;;;;6.32;1.92;;;;;;;21.63;48.64;101745.09;5230139;28;20440;-80
2022/05/09 10:58:57;;;;;;;7.47;1.70;;;;;;;21.64;48.84;101749.47;5229920;28;20021;-79
2022/05/09 11:01:36;;;;;;;4.88;1.77;;;;;;;21.81;47.66;101741.28;5230119;28;20027;-79
2022/05/09 11:04:06;;;;;;;6.70;1.98;;;;;;;21.55;47.38;101742.03;5227472;28;20093;-80
2022/05/09 11:06:59;;;;;;;6.93;1.83;;;;;;;21.64;48.37;101736.16;5231175;28;20479;-80
2022/05/09 11:10:07;;;;;;;6.43;1.50;;;;;;;21.11;47.88;101736.78;5231482;28;20033;-80
2022/05/09 11:13:01;;;;;;;6.53;1.73;;;;;;;21.68;51.60;101724.34;5227492;28;20032;-80
2022/05/09 11:15:49;;;;;;;4.47;1.42;;;;;;;21.57;48.94;101727.66;5230991;28;20185;-80
2022/05/09 11:18:52;;;;;;;4.32;1.40;;;;;;;21.74;53.14;101713.34;5227277;28;20025;-79
2022/05/09 11:21:53;;;;;;;5.40;1.80;;;;;;;22.17;54.70;101712.28;5230065;28;20739;-80
2022/05/09 11:24:44;;;;;;;4.03;1.48;;;;;;;21.77;49.67;101721.13;5230127;28;20024;-80
2022/05/09 11:27:43;;;;;;;7.40;1.45;;;;;;;21.69;50.17;101716.28;5231652;28;20056;-79
2022/05/09 11:30:23;;;;;;;6.70;1.60;;;;;;;21.75;52.49;101712.38;5226617;28;20029;-79
2022/05/09 11:33:10;;;;;;;6.93;1.60;;;;;;;21.67;49.71;101707.56;5231237;28;20482;-80
2022/05/09 11:35:41;;;;;;;5.35;1.50;;;;;;;22.14;53.34;101700.03;5228816;28;20029;-80
2022/05/09 11:38:27;;;;;;;7.97;1.50;;;;;;;21.53;49.77;101704.00;5232378;28;20024;-79
2022/05/09 11:41:17;;;;;;;4.18;1.48;;;;;;;21.61;50.44;101705.22;5231104;28;20055;-79
2022/05/09 11:44:17;;;;;;;4.43;1.30;;;;;;;21.50;52.99;101705.06;5229165;28;20070;-79
2022/05/09 11:47:05;;;;;;;4.30;1.60;;;;;;;21.95;53.01;101688.00;5229307;28;20025;-79
2022/05/09 11:49:52;;;;;;;4.93;1.70;;;;;;;21.77;52.71;101683.84;5228730;28;20024;-80
2022/05/09 11:52:29;;;;;;;6.10;1.52;;;;;;;21.83;50.63;101680.78;5214738;28;20040;-78
2022/05/09 11:55:20;;;;;;;7.60;1.73;;;;;;;21.95;52.08;101678.19;5231337;28;20112;-79
2022/05/09 11:57:55;;;;;;;4.70;1.35;;;;;;;22.07;51.87;101689.88;5232067;28;20029;-79
2022/05/09 12:00:25;;;;;;;4.13;1.30;;;;;;;21.39;49.92;101680.09;5213680;28;20055;-79
2022/05/09 12:02:59;;;;;;;4.47;1.17;;;;;;;21.49;51.49;101681.19;5230424;28;20032;-79
2022/05/09 12:05:31;;;;;;;6.00;1.50;;;;;;;21.06;50.45;101682.16;5231777;28;20642;-80
2022/05/09 12:08:17;;;;;;;5.13;1.38;;;;;;;21.10;49.12;101683.69;5230680;28;20025;-80
2022/05/09 12:10:50;;;;;;;4.18;1.60;;;;;;;21.49;53.47;101674.09;5230591;28;20051;-80
2022/05/09 12:13:21;;;;;;;4.97;1.45;;;;;;;21.49;51.75;101679.41;5231186;28;20021;-80
2022/05/09 12:15:53;;;;;;;5.65;1.48;;;;;;;21.44;49.47;101676.16;5230899;28;20027;-80
2022/05/09 12:18:26;;;;;;;4.40;1.60;;;;;;;21.71;52.14;101669.13;5213785;28;20799;-80